Terminal Aerodrome Forecast
Issued by NWS

Home | Current Version | Previous Version | Graphics & Text | Print | Product List | Glossary On
Versions: 1 2 3 4 5 6 7 8 9 10 11 12 13 14 15
000
FTUS43 KBIS 250700 AAA
TAFMOT
TAF AMD
KMOT 250744Z 2508/2606 04011KT 3SM -SN OVC025
      TEMPO 2508/2510 1 1/2SM -SN BR BKN015 OVC035
     FM251000 01012KT P6SM -SHSN SCT020 OVC050
     FM251500 33015KT P6SM SCT040 BKN120
     FM252100 29013KT P6SM SKC=

USA.gov is the U.S. government's official web portal to all federal, state and local government web resources and services.